createdAt,value
2023-01-21T00:00:00.286Z,91.4
2023-01-21T00:01:00.308Z,91.7
2023-01-21T00:02:00.323Z,91.7
2023-01-21T00:03:00.295Z,91.7
2023-01-21T00:04:00.279Z,91.7
2023-01-21T00:05:00.394Z,91.7
2023-01-21T00:06:00.292Z,91.7
2023-01-21T00:07:00.312Z,91.4
2023-01-21T00:08:02.561Z,91.4
2023-01-21T00:09:00.282Z,91.1
2023-01-21T00:10:00.284Z,91.1
2023-01-21T00:11:00.304Z,91.1
2023-01-21T00:12:00.290Z,91
2023-01-21T00:13:00.323Z,91.1
2023-01-21T00:14:00.287Z,91.1
2023-01-21T00:15:00.295Z,91
2023-01-21T00:16:00.368Z,91
2023-01-21T00:17:00.292Z,91.1
2023-01-21T00:18:00.292Z,91
2023-01-21T00:19:00.299Z,91
2023-01-21T00:20:00.313Z,91
2023-01-21T00:21:00.323Z,90.9
2023-01-21T00:22:00.297Z,91.1
2023-01-21T00:23:00.310Z,91.1
2023-01-21T00:24:00.299Z,91
2023-01-21T00:25:00.317Z,91.3
2023-01-21T00:26:00.312Z,91.6
2023-01-21T00:27:00.311Z,91.4
2023-01-21T00:28:00.328Z,91.6
2023-01-21T00:29:00.303Z,91.6
2023-01-21T00:30:00.320Z,91.6
2023-01-21T00:31:00.434Z,91.6
2023-01-21T00:32:00.356Z,91.6
2023-01-21T00:33:00.311Z,91.6
2023-01-21T00:34:00.310Z,91.6
2023-01-21T00:35:00.331Z,91.6
2023-01-21T00:36:00.306Z,91.7
2023-01-21T00:37:00.309Z,91.6
2023-01-21T00:38:00.325Z,91.6
2023-01-21T00:39:00.310Z,91.6
2023-01-21T00:40:00.333Z,91.5
2023-01-21T00:41:00.332Z,91.4
2023-01-21T00:42:00.320Z,91.6
2023-01-21T00:43:00.348Z,91.4
2023-01-21T00:44:00.334Z,91.3
2023-01-21T00:45:00.336Z,91.3
2023-01-21T00:46:00.363Z,91.3
2023-01-21T00:47:00.337Z,91.1
2023-01-21T00:48:00.324Z,90.8
2023-01-21T00:49:00.354Z,91
2023-01-21T00:50:00.337Z,91
2023-01-21T00:51:00.434Z,91
2023-01-21T00:52:00.356Z,91
2023-01-21T00:53:00.325Z,91.1
2023-01-21T00:54:00.326Z,91.3
2023-01-21T00:55:00.347Z,91.6
2023-01-21T00:56:00.377Z,91.6
2023-01-21T00:57:00.326Z,91.6
2023-01-21T00:58:00.339Z,91.6
2023-01-21T00:59:00.340Z,91.6
2023-01-21T01:00:00.371Z,91.6
2023-01-21T01:01:00.350Z,91.4
2023-01-21T01:02:00.336Z,91.9
2023-01-21T01:03:00.401Z,91.9
2023-01-21T01:04:00.353Z,91.9
2023-01-21T01:05:00.370Z,92.2
2023-01-21T01:06:00.360Z,92.2
2023-01-21T01:07:00.353Z,92.2
2023-01-21T01:08:00.354Z,92.2
2023-01-21T01:09:00.343Z,92.5
2023-01-21T01:10:00.364Z,92.5
2023-01-21T01:11:00.381Z,92.8
2023-01-21T01:12:00.348Z,92.5
2023-01-21T01:13:00.351Z,92.5
2023-01-21T01:14:00.357Z,92.8
2023-01-21T01:15:01.122Z,92.6
2023-01-21T01:16:00.469Z,92.5
2023-01-21T01:17:00.362Z,92.5
2023-01-21T01:18:00.363Z,92.2
2023-01-21T01:19:00.348Z,92.3
2023-01-21T01:20:00.369Z,92.3
2023-01-21T01:21:00.366Z,92.2
2023-01-21T01:22:00.357Z,92.3
2023-01-21T01:23:00.359Z,92.3
2023-01-21T01:24:00.364Z,92.1
2023-01-21T01:25:00.405Z,92.3
2023-01-21T01:26:00.370Z,92.2
2023-01-21T01:27:00.359Z,92.3
2023-01-21T01:28:00.361Z,92.3
2023-01-21T01:29:00.365Z,92.2
2023-01-21T01:30:00.396Z,91.6
2023-01-21T01:31:00.483Z,91.2
2023-01-21T01:32:00.364Z,91
2023-01-21T01:33:00.364Z,90.8
2023-01-21T01:34:00.368Z,90.7
2023-01-21T01:35:00.408Z,90.7
2023-01-21T01:36:00.364Z,90.5
2023-01-21T01:37:00.370Z,90.2
2023-01-21T01:38:00.367Z,90.4
2023-01-21T01:39:00.376Z,90.2
2023-01-21T01:40:00.388Z,90.4
2023-01-21T01:41:00.373Z,90.4
2023-01-21T01:42:00.370Z,90.4
2023-01-21T01:43:00.374Z,90.4
2023-01-21T01:44:00.390Z,90.2
2023-01-21T01:45:00.411Z,91
2023-01-21T01:46:00.468Z,91
2023-01-21T01:47:00.378Z,91
2023-01-21T01:48:00.378Z,91.1
2023-01-21T01:49:00.390Z,91.6
2023-01-21T01:50:00.402Z,91.7
2023-01-21T01:51:00.437Z,92.2
2023-01-21T01:52:00.391Z,92.2
2023-01-21T01:53:00.387Z,92.2
2023-01-21T01:54:00.385Z,92.2
2023-01-21T01:55:00.410Z,92
2023-01-21T01:56:00.407Z,92.2
2023-01-21T01:57:00.411Z,92.2
2023-01-21T01:58:00.411Z,92.2
2023-01-21T01:59:00.393Z,92.2
2023-01-21T02:00:00.424Z,92.5
2023-01-21T02:01:00.408Z,92.5
2023-01-21T02:02:00.451Z,92.8
2023-01-21T02:03:00.470Z,92.8
2023-01-21T02:04:00.412Z,92.8
2023-01-21T02:05:00.415Z,92.6
2023-01-21T02:06:00.398Z,92.6
2023-01-21T02:07:00.411Z,92.5
2023-01-21T02:08:00.415Z,92
2023-01-21T02:09:00.422Z,92.2
2023-01-21T02:10:00.411Z,91.9
2023-01-21T02:11:00.490Z,91.6
2023-01-21T02:12:00.406Z,91.6
2023-01-21T02:13:00.406Z,91.6
2023-01-21T02:14:00.433Z,91.5
2023-01-21T02:15:00.411Z,91.3
2023-01-21T02:16:00.448Z,91
2023-01-21T02:17:00.429Z,91.3
2023-01-21T02:18:00.528Z,91.3
2023-01-21T02:19:00.457Z,91.3
2023-01-21T02:20:00.460Z,91.3
2023-01-21T02:21:00.582Z,91.4
2023-01-21T02:22:00.458Z,91.5
2023-01-21T02:23:00.549Z,91.6
2023-01-21T02:24:00.516Z,91.6
2023-01-21T02:25:00.470Z,91.9
2023-01-21T02:26:00.535Z,91.9
2023-01-21T02:27:00.501Z,91.6
2023-01-21T02:28:00.517Z,92.1
2023-01-21T02:29:00.512Z,91.7
2023-01-21T02:30:00.505Z,92.2
2023-01-21T02:31:00.685Z,92.2
2023-01-21T02:32:00.558Z,92
2023-01-21T02:33:00.527Z,92.2
2023-01-21T02:34:00.600Z,92.2
2023-01-21T02:35:00.482Z,92
2023-01-21T02:36:00.521Z,92.5
2023-01-21T02:37:00.535Z,92.6
2023-01-21T02:38:00.539Z,93.4
2023-01-21T02:39:00.460Z,93.4
2023-01-21T02:40:00.481Z,93.7
2023-01-21T02:41:00.464Z,93.7
2023-01-21T02:42:00.482Z,93.7
2023-01-21T02:43:00.437Z,93.4
2023-01-21T02:44:00.435Z,93.6
2023-01-21T02:45:00.465Z,93.4
2023-01-21T02:46:00.451Z,93.5
2023-01-21T02:47:00.439Z,93.5
2023-01-21T02:48:00.475Z,93.5
2023-01-21T02:49:00.485Z,93.5
2023-01-21T02:50:00.489Z,93.2
2023-01-21T02:51:00.498Z,93
2023-01-21T02:52:00.446Z,92.9
2023-01-21T02:53:00.462Z,92.9
2023-01-21T02:54:00.448Z,93.2
2023-01-21T02:55:00.487Z,93
2023-01-21T02:56:00.449Z,92.9
2023-01-21T02:57:00.454Z,92.9
2023-01-21T02:58:00.456Z,92.9
2023-01-21T02:59:00.488Z,92.9
2023-01-21T03:00:00.477Z,92.9
2023-01-21T03:01:01.656Z,92.9
2023-01-21T03:02:01.612Z,92.9
2023-01-21T03:03:01.588Z,92.9
2023-01-21T03:04:01.574Z,92.9
2023-01-21T03:05:01.602Z,92.9
2023-01-21T03:06:01.582Z,92.9
2023-01-21T03:07:01.637Z,92.9
2023-01-21T03:08:01.609Z,92.7
2023-01-21T03:09:01.585Z,92.9
2023-01-21T03:10:01.599Z,92.9
2023-01-21T03:11:01.613Z,92.6
2023-01-21T03:12:01.584Z,92.6
2023-01-21T03:13:01.604Z,92.3
2023-01-21T03:14:01.608Z,92.6
2023-01-21T03:15:01.632Z,92.1
2023-01-21T03:16:01.676Z,92.1
2023-01-21T03:17:01.625Z,92.3
2023-01-21T03:18:01.596Z,92.3
2023-01-21T03:19:01.605Z,92.3
2023-01-21T03:20:01.646Z,92.3
2023-01-21T03:21:01.612Z,92.3
2023-01-21T03:22:01.600Z,92.3
2023-01-21T03:23:01.602Z,92.3
2023-01-21T03:24:01.596Z,92.3
2023-01-21T03:25:00.193Z,92.1
2023-01-21T03:26:00.208Z,92.1
2023-01-21T03:27:00.206Z,92.3
2023-01-21T03:28:00.189Z,92.3
2023-01-21T03:29:00.202Z,92.3
2023-01-21T03:30:00.258Z,92.3
2023-01-21T03:31:00.276Z,92.3
2023-01-21T03:32:00.208Z,92.1
2023-01-21T03:33:00.200Z,92.3
2023-01-21T03:34:00.237Z,92.3
2023-01-21T03:35:00.195Z,92.3
2023-01-21T03:36:00.237Z,92.3
2023-01-21T03:37:00.198Z,92.6
2023-01-21T03:38:00.201Z,92.6
2023-01-21T03:39:00.245Z,92.6
2023-01-21T03:40:00.231Z,92.9
2023-01-21T03:41:00.218Z,92.9
2023-01-21T03:42:00.228Z,92.9
2023-01-21T03:43:00.209Z,92.9
2023-01-21T03:44:00.209Z,92.7
2023-01-21T03:45:00.256Z,92.9
2023-01-21T03:46:00.261Z,92.7
2023-01-21T03:47:00.208Z,92.4
2023-01-21T03:48:00.242Z,92.9
2023-01-21T03:49:00.212Z,92.9
2023-01-21T03:50:00.230Z,92.6
2023-01-21T03:51:00.363Z,92.3
2023-01-21T03:52:00.214Z,92.3
2023-01-21T03:53:00.251Z,92.1
2023-01-21T03:54:00.266Z,92.3
2023-01-21T03:55:00.218Z,92.3
2023-01-21T03:56:00.223Z,92.3
2023-01-21T03:57:00.231Z,92.1
2023-01-21T03:58:00.307Z,92.3
2023-01-21T03:59:00.217Z,92.3
2023-01-21T04:00:00.221Z,92.3
2023-01-21T04:01:00.271Z,92
2023-01-21T04:02:00.265Z,92.3
2023-01-21T04:03:00.245Z,92.3
2023-01-21T04:04:00.273Z,92.3
2023-01-21T04:05:00.275Z,92.3
2023-01-21T04:06:00.260Z,92
2023-01-21T04:07:00.236Z,92
2023-01-21T04:08:00.254Z,91.7
2023-01-21T04:09:00.246Z,91.7
2023-01-21T04:10:00.243Z,91.7
2023-01-21T04:11:00.232Z,91.4
2023-01-21T04:12:00.259Z,91.7
2023-01-21T04:13:00.254Z,91.7
2023-01-21T04:14:00.240Z,91.7
2023-01-21T04:15:00.251Z,91.5
2023-01-21T04:16:00.236Z,91.7
2023-01-21T04:17:00.265Z,92
2023-01-21T04:18:00.248Z,91.7
2023-01-21T04:19:00.254Z,91.7
2023-01-21T04:20:00.270Z,91.4
2023-01-21T04:21:00.264Z,91.7
2023-01-21T04:22:00.269Z,91.5
2023-01-21T04:23:00.243Z,91.7
2023-01-21T04:24:00.245Z,91.7
2023-01-21T04:25:00.258Z,91.7
2023-01-21T04:26:00.247Z,91.7
2023-01-21T04:27:00.264Z,91.7
2023-01-21T04:28:00.248Z,91.7
2023-01-21T04:29:00.249Z,91.7
2023-01-21T04:30:00.263Z,91.7
2023-01-21T04:31:00.307Z,91.7
2023-01-21T04:32:00.345Z,91.7
2023-01-21T04:33:00.287Z,91.7
2023-01-21T04:34:00.265Z,91.7
2023-01-21T04:35:00.267Z,91.7
2023-01-21T04:36:00.278Z,91.7
2023-01-21T04:37:00.274Z,91.7
2023-01-21T04:38:00.269Z,92
2023-01-21T04:39:00.264Z,92
2023-01-21T04:40:00.256Z,92.3
2023-01-21T04:41:00.264Z,92.3
2023-01-21T04:42:00.277Z,92.3
2023-01-21T04:43:00.306Z,92.3
2023-01-21T04:44:00.258Z,92.3
2023-01-21T04:45:00.291Z,92.6
2023-01-21T04:46:00.377Z,92.4
2023-01-21T04:47:00.286Z,92.6
2023-01-21T04:48:00.283Z,92.6
2023-01-21T04:49:00.290Z,93
2023-01-21T04:50:00.271Z,92.6
2023-01-21T04:51:00.306Z,92.5
2023-01-21T04:52:00.278Z,92.7
2023-01-21T04:53:00.274Z,92.1
2023-01-21T04:54:00.298Z,92.4
2023-01-21T04:55:00.274Z,92.4
2023-01-21T04:56:00.293Z,91.9
2023-01-21T04:57:00.286Z,92.1
2023-01-21T04:58:00.337Z,92.4
2023-01-21T04:59:00.295Z,92.1
2023-01-21T05:00:00.279Z,92.1
2023-01-21T05:01:00.331Z,91.8
2023-01-21T05:02:00.332Z,92.1
2023-01-21T05:03:00.294Z,91.9
2023-01-21T05:04:00.303Z,92.1
2023-01-21T05:05:00.300Z,91.8
2023-01-21T05:06:00.312Z,91.8
2023-01-21T05:07:00.288Z,91.6
2023-01-21T05:08:00.291Z,91.8
2023-01-21T05:09:00.310Z,91.8
2023-01-21T05:10:00.307Z,91.8
2023-01-21T05:11:00.297Z,91.8
2023-01-21T05:12:00.291Z,91.8
2023-01-21T05:13:00.291Z,91.6
2023-01-21T05:14:00.314Z,91.5
2023-01-21T05:15:00.295Z,91.5
2023-01-21T05:16:00.345Z,91.5
2023-01-21T05:17:00.393Z,91.3
2023-01-21T05:18:00.327Z,91.5
2023-01-21T05:19:00.321Z,91.2
2023-01-21T05:20:00.312Z,91.5
2023-01-21T05:21:00.319Z,91.2
2023-01-21T05:22:00.303Z,91.2
2023-01-21T05:23:00.304Z,91.2
2023-01-21T05:24:00.326Z,91.2
2023-01-21T05:25:00.322Z,91.2
2023-01-21T05:26:00.309Z,91.2
2023-01-21T05:27:00.325Z,91.2
2023-01-21T05:28:00.325Z,91.2
2023-01-21T05:29:00.327Z,91.2
2023-01-21T05:30:00.316Z,91.2
2023-01-21T05:31:00.454Z,91.1
2023-01-21T05:32:00.407Z,91.2
2023-01-21T05:33:00.343Z,91.2
2023-01-21T05:34:00.332Z,91.2
2023-01-21T05:35:00.321Z,91.2
2023-01-21T05:36:00.353Z,91.2
2023-01-21T05:37:00.376Z,91.2
2023-01-21T05:38:00.602Z,91.2
2023-01-21T05:39:00.342Z,90.9
2023-01-21T05:40:00.319Z,91.2
2023-01-21T05:41:00.323Z,91.1
2023-01-21T05:42:00.327Z,91.1
2023-01-21T05:43:00.343Z,91.3
2023-01-21T05:44:00.336Z,91.3
2023-01-21T05:45:00.320Z,91.3
2023-01-21T05:46:00.331Z,90.8
2023-01-21T05:47:00.328Z,91.1
2023-01-21T05:48:00.346Z,91.3
2023-01-21T05:49:00.345Z,91.1
2023-01-21T05:50:00.336Z,91.1
2023-01-21T05:51:00.416Z,91.3
2023-01-21T05:52:00.335Z,91.3
2023-01-21T05:53:00.348Z,91.3
2023-01-21T05:54:00.352Z,91
2023-01-21T05:55:02.562Z,91.1
2023-01-21T05:56:00.335Z,91.3
2023-01-21T05:57:00.332Z,91.3
2023-01-21T05:58:00.357Z,91.3
2023-01-21T05:59:00.349Z,91.3
2023-01-21T06:00:00.337Z,91.3
2023-01-21T06:01:00.339Z,91.3
2023-01-21T06:02:00.341Z,91.3
2023-01-21T06:03:00.373Z,91.3
2023-01-21T06:04:00.356Z,91.3
2023-01-21T06:05:00.352Z,90.8
2023-01-21T06:06:00.350Z,91.1
2023-01-21T06:07:00.343Z,91.3
2023-01-21T06:08:00.424Z,91.3
2023-01-21T06:09:00.370Z,91.3
2023-01-21T06:10:00.347Z,90.9
2023-01-21T06:11:00.356Z,91.3
2023-01-21T06:12:00.360Z,91.3
2023-01-21T06:13:00.377Z,91.3
2023-01-21T06:14:00.387Z,91.3
2023-01-21T06:15:00.350Z,91.3
2023-01-21T06:16:00.428Z,91.3
2023-01-21T06:17:00.380Z,91.1
2023-01-21T06:18:00.474Z,91.3
2023-01-21T06:19:00.374Z,91.3
2023-01-21T06:20:00.356Z,91.1
2023-01-21T06:21:00.410Z,91.3
2023-01-21T06:22:00.452Z,91.3
2023-01-21T06:23:00.452Z,91.3
2023-01-21T06:24:00.381Z,91.6
2023-01-21T06:25:00.373Z,91.6
2023-01-21T06:26:00.394Z,91.6
2023-01-21T06:27:00.402Z,91.6
2023-01-21T06:28:00.441Z,91.6
2023-01-21T06:29:00.439Z,91.6
2023-01-21T06:30:00.396Z,91.6
2023-01-21T06:31:00.530Z,91.6
2023-01-21T06:32:00.655Z,91.6
2023-01-21T06:33:00.499Z,91.6
2023-01-21T06:34:00.481Z,91.9
2023-01-21T06:35:00.489Z,91.7
2023-01-21T06:36:00.511Z,91.9
2023-01-21T06:37:00.510Z,91.9
2023-01-21T06:38:00.490Z,91.9
2023-01-21T06:39:00.447Z,91.6
2023-01-21T06:40:00.490Z,91.9
2023-01-21T06:41:00.468Z,91.9
2023-01-21T06:42:00.503Z,91.9
2023-01-21T06:43:00.443Z,91.9
2023-01-21T06:44:00.510Z,91.9
2023-01-21T06:45:00.452Z,91.9
2023-01-21T06:46:00.540Z,91.8
2023-01-21T06:47:01.345Z,91.9
2023-01-21T06:48:00.487Z,91.8
2023-01-21T06:49:00.512Z,91.4
2023-01-21T06:50:00.402Z,91.6
2023-01-21T06:51:00.480Z,91.6
2023-01-21T06:52:00.407Z,91.9
2023-01-21T06:53:01.206Z,91.3
2023-01-21T06:54:00.415Z,91.6
2023-01-21T06:55:00.423Z,91.6
2023-01-21T06:56:00.418Z,91.6
2023-01-21T06:57:00.414Z,91.6
2023-01-21T06:58:00.396Z,91.5
2023-01-21T06:59:00.405Z,91.1
2023-01-21T07:00:00.415Z,91.4
2023-01-21T07:01:00.418Z,91.2
2023-01-21T07:02:00.475Z,91.3
2023-01-21T07:03:00.477Z,91.3
2023-01-21T07:04:00.441Z,91.3
2023-01-21T07:05:00.488Z,91.2
2023-01-21T07:06:00.420Z,91.3
2023-01-21T07:07:00.435Z,91.4
2023-01-21T07:08:00.482Z,91.3
2023-01-21T07:09:00.435Z,91.3
2023-01-21T07:10:00.432Z,91.3
2023-01-21T07:11:00.411Z,91.3
2023-01-21T07:12:00.426Z,91.3
2023-01-21T07:13:00.453Z,91.2
2023-01-21T07:14:00.417Z,91.4
2023-01-21T07:15:00.412Z,91.3
2023-01-21T07:16:00.482Z,91.6
2023-01-21T07:17:00.433Z,91.4
2023-01-21T07:18:00.440Z,91.4
2023-01-21T07:19:00.434Z,91.2
2023-01-21T07:20:00.429Z,91.4
2023-01-21T07:21:00.427Z,91.4
2023-01-21T07:22:00.455Z,91.4
2023-01-21T07:23:00.440Z,91.4
2023-01-21T07:24:00.445Z,91.4
2023-01-21T07:25:00.437Z,91.2
2023-01-21T07:26:00.427Z,91.7
2023-01-21T07:27:00.449Z,91.5
2023-01-21T07:28:00.445Z,91.7
2023-01-21T07:29:01.988Z,91.2
2023-01-21T07:30:00.435Z,91.4
2023-01-21T07:31:00.505Z,91.7
2023-01-21T07:32:00.525Z,91.4
2023-01-21T07:33:00.467Z,91.7
2023-01-21T07:34:00.471Z,91.5
2023-01-21T07:35:00.447Z,91.7
2023-01-21T07:36:00.457Z,91.4
2023-01-21T07:37:00.467Z,91.7
2023-01-21T07:38:00.582Z,91.4
2023-01-21T07:39:00.442Z,91.4
2023-01-21T07:40:00.466Z,91.7
2023-01-21T07:41:00.454Z,91.4
2023-01-21T07:42:00.462Z,91.5
2023-01-21T07:43:00.463Z,91.3
2023-01-21T07:44:00.448Z,91.5
2023-01-21T07:45:00.468Z,91.5
2023-01-21T07:46:00.542Z,91.5
2023-01-21T07:47:00.481Z,91.5
2023-01-21T07:48:00.465Z,91.5
2023-01-21T07:49:00.449Z,91.5
2023-01-21T07:50:00.509Z,91.5
2023-01-21T07:51:00.529Z,91.2
2023-01-21T07:52:00.480Z,91.2
2023-01-21T07:53:00.473Z,91.2
2023-01-21T07:54:00.468Z,91.2
2023-01-21T07:55:00.465Z,91.2
2023-01-21T07:56:00.463Z,90.9
2023-01-21T07:57:00.474Z,91
2023-01-21T07:58:00.486Z,91
2023-01-21T07:59:00.459Z,91
2023-01-21T08:00:00.473Z,91
2023-01-21T08:01:00.482Z,91
2023-01-21T08:02:00.675Z,90.7
2023-01-21T08:03:00.489Z,90.7
2023-01-21T08:04:00.473Z,90.4
2023-01-21T08:05:00.496Z,90.4
2023-01-21T08:06:00.493Z,90.5
2023-01-21T08:07:00.494Z,90.3
2023-01-21T08:08:00.501Z,90
2023-01-21T08:09:00.491Z,89.8
2023-01-21T08:10:00.497Z,89.9
2023-01-21T08:11:00.478Z,89.9
2023-01-21T08:12:00.510Z,89.7
2023-01-21T08:13:00.489Z,89.9
2023-01-21T08:14:00.478Z,89.4
2023-01-21T08:15:00.498Z,89.3
2023-01-21T08:16:00.559Z,89.3
2023-01-21T08:17:00.526Z,89
2023-01-21T08:18:00.491Z,89.3
2023-01-21T08:19:00.500Z,89.3
2023-01-21T08:20:00.544Z,89.3
2023-01-21T08:21:00.501Z,89.3
2023-01-21T08:22:00.504Z,89
2023-01-21T08:23:00.526Z,89
2023-01-21T08:24:00.497Z,89.4
2023-01-21T08:25:00.498Z,89.1
2023-01-21T08:26:00.500Z,89.1
2023-01-21T08:27:00.522Z,88.8
2023-01-21T08:28:00.507Z,88.8
2023-01-21T08:29:00.485Z,88.6
2023-01-21T08:30:00.536Z,88.8
2023-01-21T08:31:00.535Z,88.8
2023-01-21T08:32:00.529Z,88.8
2023-01-21T08:33:00.513Z,88.5
2023-01-21T08:34:00.504Z,88.5
2023-01-21T08:35:00.500Z,88.5
2023-01-21T08:36:00.498Z,88.2
2023-01-21T08:37:00.509Z,88.2
2023-01-21T08:38:00.528Z,88.2
2023-01-21T08:39:00.507Z,88.2
2023-01-21T08:40:00.526Z,87.6
2023-01-21T08:41:00.519Z,87.7
2023-01-21T08:42:00.512Z,87.5
2023-01-21T08:43:00.520Z,87
2023-01-21T08:44:00.503Z,87.1
2023-01-21T08:45:00.506Z,86.6
2023-01-21T08:46:00.559Z,86.7
2023-01-21T08:47:00.525Z,86.5
2023-01-21T08:48:00.529Z,86.5
2023-01-21T08:49:00.520Z,86.8
2023-01-21T08:50:00.551Z,86.5
2023-01-21T08:51:00.623Z,86.5
2023-01-21T08:52:00.529Z,86.5
2023-01-21T08:53:00.526Z,86.2
2023-01-21T08:54:00.513Z,85.9
2023-01-21T08:55:00.545Z,85.9
2023-01-21T08:56:00.559Z,86.2
2023-01-21T08:57:00.520Z,85.9
2023-01-21T08:58:00.528Z,85.9
2023-01-21T08:59:00.550Z,86.2
2023-01-21T09:00:00.566Z,86.2
2023-01-21T09:01:00.547Z,85.8
2023-01-21T09:02:00.556Z,86.3
2023-01-21T09:03:00.546Z,86
2023-01-21T09:04:00.564Z,86
2023-01-21T09:05:00.541Z,85.7
2023-01-21T09:06:00.542Z,85.4
2023-01-21T09:07:00.522Z,85.4
2023-01-21T09:08:00.591Z,84.9
2023-01-21T09:09:00.530Z,84.8
2023-01-21T09:10:00.550Z,84.5
2023-01-21T09:11:00.555Z,83.6
2023-01-21T09:12:00.549Z,83.6
2023-01-21T09:13:00.529Z,83.4
2023-01-21T09:14:00.542Z,83.9
2023-01-21T09:15:00.569Z,83.6
2023-01-21T09:16:00.548Z,83.6
2023-01-21T09:17:00.551Z,83.3
2023-01-21T09:18:00.582Z,83.6
2023-01-21T09:19:00.544Z,83.6
2023-01-21T09:20:00.557Z,83
2023-01-21T09:21:00.565Z,83
2023-01-21T09:22:00.561Z,82.4
2023-01-21T09:23:00.548Z,82.4
2023-01-21T09:24:00.564Z,82.1
2023-01-21T09:25:00.536Z,82.2
2023-01-21T09:26:00.500Z,83
2023-01-21T09:27:00.456Z,83
2023-01-21T09:28:00.427Z,82.1
2023-01-21T09:29:00.419Z,82.4
2023-01-21T09:30:00.402Z,81.9
2023-01-21T09:31:00.371Z,82.4
2023-01-21T09:32:00.366Z,82.4
2023-01-21T09:33:00.292Z,82.4
2023-01-21T09:34:00.293Z,82.4
2023-01-21T09:35:00.250Z,81.8
2023-01-21T09:36:00.205Z,81.2
2023-01-21T09:37:00.190Z,81.8
2023-01-21T09:38:00.171Z,82.1
2023-01-21T09:39:00.146Z,81.8
2023-01-21T09:40:00.158Z,82.5
2023-01-21T09:41:00.144Z,81.9
2023-01-21T09:42:00.172Z,81.9
2023-01-21T09:43:00.135Z,81.6
2023-01-21T09:44:00.142Z,81.3
2023-01-21T09:45:00.165Z,81.3
2023-01-21T09:46:02.955Z,80.7
2023-01-21T09:47:00.168Z,81.3
2023-01-21T09:48:00.149Z,81.3
2023-01-21T09:49:00.160Z,81
2023-01-21T09:50:00.187Z,81
2023-01-21T09:51:00.188Z,81
2023-01-21T09:52:00.288Z,80.7
2023-01-21T09:53:00.161Z,80.7
2023-01-21T09:54:00.147Z,80.1
2023-01-21T09:55:00.170Z,80.1
2023-01-21T09:56:00.176Z,80.4
2023-01-21T09:57:00.191Z,80.1
2023-01-21T09:58:00.196Z,80.1
2023-01-21T09:59:00.169Z,80.1
2023-01-21T10:00:00.190Z,79.5
2023-01-21T10:01:00.190Z,79.8
2023-01-21T10:02:00.203Z,80.1
2023-01-21T10:03:00.215Z,80.1
2023-01-21T10:04:00.183Z,79.8
2023-01-21T10:05:00.157Z,80.1
2023-01-21T10:06:00.177Z,80.1
2023-01-21T10:07:00.165Z,80.1
2023-01-21T10:08:00.217Z,80.4
2023-01-21T10:09:00.181Z,80.4
2023-01-21T10:10:00.167Z,80.7
2023-01-21T10:11:00.202Z,79.8
2023-01-21T10:12:00.183Z,80.4
2023-01-21T10:13:00.182Z,81
2023-01-21T10:14:00.182Z,80.1
2023-01-21T10:15:00.200Z,80.7
2023-01-21T10:16:00.194Z,80.1
2023-01-21T10:17:00.234Z,80.1
2023-01-21T10:18:00.196Z,80.7
2023-01-21T10:19:00.192Z,81.3
2023-01-21T10:20:00.176Z,81
2023-01-21T10:21:00.202Z,81.3
2023-01-21T10:22:00.179Z,81.1
2023-01-21T10:23:00.201Z,80.4
2023-01-21T10:24:00.194Z,80.1
2023-01-21T10:25:00.179Z,80.1
2023-01-21T10:26:00.211Z,80.2
2023-01-21T10:27:00.230Z,80.1
2023-01-21T10:28:00.265Z,79.8
2023-01-21T10:29:00.202Z,80.2
2023-01-21T10:30:00.211Z,80.1
2023-01-21T10:31:00.326Z,80.1
2023-01-21T10:32:00.226Z,80.1
2023-01-21T10:33:00.206Z,80.8
2023-01-21T10:34:00.191Z,80.8
2023-01-21T10:35:00.207Z,80.4
2023-01-21T10:36:00.194Z,80.7
2023-01-21T10:37:00.225Z,79.5
2023-01-21T10:38:01.203Z,79.8
2023-01-21T10:39:00.217Z,80.3
2023-01-21T10:40:00.211Z,80.1
2023-01-21T10:41:00.192Z,80.1
2023-01-21T10:42:00.212Z,80.1
2023-01-21T10:43:00.234Z,80.5
2023-01-21T10:44:00.220Z,79.5
2023-01-21T10:45:00.220Z,80.1
2023-01-21T10:46:00.287Z,80.2
2023-01-21T10:47:00.217Z,79.7
2023-01-21T10:48:00.206Z,80.1
2023-01-21T10:49:00.211Z,78.9
2023-01-21T10:50:00.220Z,79.5
2023-01-21T10:51:00.298Z,79.5
2023-01-21T10:52:00.245Z,79.5
2023-01-21T10:53:00.251Z,79.2
2023-01-21T10:54:00.233Z,79.5
2023-01-21T10:55:00.248Z,78.9
2023-01-21T10:56:00.222Z,78.9
2023-01-21T10:57:00.233Z,79.7
2023-01-21T10:58:00.229Z,79.5
2023-01-21T10:59:00.252Z,78.9
2023-01-21T11:00:00.240Z,78.3
2023-01-21T11:01:00.276Z,79.2
2023-01-21T11:02:00.233Z,79.8
2023-01-21T11:03:00.222Z,78.9
2023-01-21T11:04:00.220Z,79.5
2023-01-21T11:05:00.238Z,79.5
2023-01-21T11:06:00.246Z,79.5
2023-01-21T11:07:00.259Z,78.9
2023-01-21T11:08:00.228Z,78.4
2023-01-21T11:09:00.307Z,79
2023-01-21T11:10:00.251Z,78.9
2023-01-21T11:11:00.228Z,79
2023-01-21T11:12:00.239Z,79.8
2023-01-21T11:13:00.236Z,79.5
2023-01-21T11:14:00.254Z,78.6
2023-01-21T11:15:00.240Z,79
2023-01-21T11:16:00.283Z,79.5
2023-01-21T11:17:00.250Z,79.5
2023-01-21T11:18:00.244Z,79.5
2023-01-21T11:19:00.240Z,80
2023-01-21T11:20:00.389Z,80.1
2023-01-21T11:21:00.234Z,80.3
2023-01-21T11:22:00.268Z,79.2
2023-01-21T11:23:00.237Z,79.7
2023-01-21T11:24:00.273Z,79.9
2023-01-21T11:25:00.258Z,79.6
2023-01-21T11:26:00.248Z,79.7
2023-01-21T11:27:00.274Z,79.6
2023-01-21T11:28:00.298Z,79.7
2023-01-21T11:29:00.263Z,79.6
2023-01-21T11:30:00.335Z,79.6
2023-01-21T11:31:00.363Z,79
2023-01-21T11:32:00.454Z,78.7
2023-01-21T11:33:01.166Z,78.4
2023-01-21T11:34:00.253Z,77.8
2023-01-21T11:35:00.260Z,78.4
2023-01-21T11:36:00.273Z,78.1
2023-01-21T11:37:00.277Z,77.9
2023-01-21T11:38:00.263Z,77.1
2023-01-21T11:39:00.280Z,76.8
2023-01-21T11:40:00.269Z,77.1
2023-01-21T11:41:00.257Z,77.1
2023-01-21T11:42:00.277Z,77.1
2023-01-21T11:43:00.300Z,77.9
2023-01-21T11:44:00.258Z,77.1
2023-01-21T11:45:00.292Z,77.7
2023-01-21T11:46:00.277Z,77.6
2023-01-21T11:47:00.289Z,77.7
2023-01-21T11:48:00.339Z,77.7
2023-01-21T11:49:00.272Z,77.1
2023-01-21T11:50:00.289Z,76.8
2023-01-21T11:51:00.304Z,77.2
2023-01-21T11:52:00.288Z,76.8
2023-01-21T11:53:01.930Z,77.1
2023-01-21T11:54:00.290Z,77.4
2023-01-21T11:55:00.292Z,76.8
2023-01-21T11:56:00.275Z,76.5
2023-01-21T11:57:00.293Z,76.9
2023-01-21T11:58:00.348Z,77.4
2023-01-21T11:59:00.288Z,76.3
2023-01-21T12:00:00.354Z,77.1
2023-01-21T12:01:00.299Z,77.8
2023-01-21T12:02:00.287Z,77
2023-01-21T12:03:00.456Z,76.7
2023-01-21T12:04:00.344Z,77
2023-01-21T12:05:00.317Z,77.5
2023-01-21T12:06:00.298Z,77.5
2023-01-21T12:07:00.290Z,77
2023-01-21T12:08:00.330Z,77.6
2023-01-21T12:09:00.312Z,77.8
2023-01-21T12:10:00.306Z,77.8
2023-01-21T12:11:00.282Z,77.6
2023-01-21T12:12:00.286Z,77.6
2023-01-21T12:13:00.294Z,77.6
2023-01-21T12:14:00.309Z,77.3
2023-01-21T12:15:00.309Z,77.8
2023-01-21T12:16:00.349Z,77.3
2023-01-21T12:17:00.305Z,77.6
2023-01-21T12:18:00.335Z,77.6
2023-01-21T12:19:00.296Z,77.7
2023-01-21T12:20:00.311Z,77.9
2023-01-21T12:21:00.313Z,78.3
2023-01-21T12:22:00.297Z,78.2
2023-01-21T12:23:00.348Z,77.9
2023-01-21T12:24:00.314Z,78.3
2023-01-21T12:25:00.316Z,78.4
2023-01-21T12:26:00.311Z,78.2
2023-01-21T12:27:00.302Z,78.2
2023-01-21T12:28:00.458Z,77.6
2023-01-21T12:29:00.320Z,78.2
2023-01-21T12:30:00.333Z,78.2
2023-01-21T12:31:00.498Z,78.8
2023-01-21T12:32:00.398Z,79.2
2023-01-21T12:33:00.303Z,79.1
2023-01-21T12:34:00.322Z,78.8
2023-01-21T12:35:00.323Z,78.5
2023-01-21T12:36:00.314Z,78.3
2023-01-21T12:37:00.308Z,78.8
2023-01-21T12:38:00.327Z,79.1
2023-01-21T12:39:00.335Z,79.4
2023-01-21T12:40:00.345Z,79.4
2023-01-21T12:41:00.624Z,78.8
2023-01-21T12:42:00.337Z,78.8
2023-01-21T12:43:00.359Z,79.3
2023-01-21T12:44:00.335Z,78.8
2023-01-21T12:45:00.332Z,78.8
2023-01-21T12:46:00.315Z,78.8
2023-01-21T12:47:00.407Z,78.8
2023-01-21T12:48:00.386Z,79.3
2023-01-21T12:49:02.037Z,79
2023-01-21T12:50:00.334Z,79
2023-01-21T12:51:00.352Z,78.8
2023-01-21T12:52:00.337Z,78.5
2023-01-21T12:53:00.438Z,79
2023-01-21T12:54:00.346Z,78.5
2023-01-21T12:55:00.417Z,78.8
2023-01-21T12:56:00.372Z,79
2023-01-21T12:57:00.352Z,78.4
2023-01-21T12:58:00.424Z,78.5
2023-01-21T12:59:00.371Z,79
2023-01-21T13:00:00.448Z,79
2023-01-21T13:01:00.495Z,78.8
2023-01-21T13:02:00.567Z,78.6
2023-01-21T13:03:00.532Z,78.4
2023-01-21T13:04:00.391Z,79
2023-01-21T13:05:00.502Z,78.9
2023-01-21T13:06:00.413Z,78.7
2023-01-21T13:07:00.433Z,78.9
2023-01-21T13:08:00.571Z,78.2
2023-01-21T13:09:00.462Z,78.9
2023-01-21T13:10:00.492Z,79
2023-01-21T13:11:00.519Z,78.3
2023-01-21T13:12:00.450Z,78.4
2023-01-21T13:13:00.450Z,78.2
2023-01-21T13:14:00.393Z,78.2
2023-01-21T13:15:00.463Z,77.9
2023-01-21T13:16:00.531Z,78.2
2023-01-21T13:17:00.413Z,78.2
2023-01-21T13:18:00.493Z,78.8
2023-01-21T13:19:00.455Z,79.1
2023-01-21T13:20:00.451Z,79.3
2023-01-21T13:21:00.371Z,79.1
2023-01-21T13:22:00.371Z,78.8